NKS1692 KDFW-KLAX
Flight info
| Callsign | NKS1692 |
|---|---|
| Flight time | 2h 46m |
| Altitude | 34000 |
| Route | KATZZ2 BRHMA CNX ONM SJN DRK J231 HIPPI GABBL HLYWD1 |
| Aircraft | A21N/M-SDE2E3FGHIRWXY/LB1 |
Departure
| Time | 2026-05-07 21:18 |
|---|---|
| Airport | Dallas Fort Worth International Airport (KDFW) |
Arrival
| Time | 2026-05-08 00:04 |
|---|---|
| Airport | Los Angeles International Airport (KLAX) |
| Time | Latitude | Longitude | Altitude | Speed | Heading |
|---|---|---|---|---|---|
| 2026-05-07 20:56 | 32.88948 | -97.03529 | 590 ft | 0 kts | 289° |
| 2026-05-07 21:11 | 32.88947 | -97.03525 | 590 ft | 3 kts | 289° |
| 2026-05-07 21:12 | 32.88941 | -97.03495 | 590 ft | 4 kts | 270° |
| 2026-05-07 21:12 | 32.88946 | -97.03467 | 590 ft | 4 kts | 231° |
| 2026-05-07 21:12 | 32.88958 | -97.03456 | 589 ft | 0 kts | 200° |
| 2026-05-07 21:14 | 32.88941 | -97.03450 | 589 ft | 13 kts | 136° |
| 2026-05-07 21:14 | 32.88934 | -97.03363 | 589 ft | 8 kts | 92° |
| 2026-05-07 21:14 | 32.88911 | -97.03294 | 585 ft | 8 kts | 108° |
| 2026-05-07 21:15 | 32.88902 | -97.03249 | 580 ft | 5 kts | 104° |
| 2026-05-07 21:15 | 32.88816 | -97.03197 | 577 ft | 19 kts | 181° |
| 2026-05-07 21:15 | 32.88680 | -97.03200 | 581 ft | 20 kts | 181° |
| 2026-05-07 21:15 | 32.88538 | -97.03202 | 579 ft | 21 kts | 179° |
| 2026-05-07 21:16 | 32.88389 | -97.03202 | 582 ft | 22 kts | 180° |
| 2026-05-07 21:16 | 32.88232 | -97.03201 | 581 ft | 23 kts | 180° |
| 2026-05-07 21:16 | 32.88071 | -97.03200 | 581 ft | 24 kts | 180° |
| 2026-05-07 21:16 | 32.87984 | -97.03145 | 581 ft | 15 kts | 98° |
| 2026-05-07 21:17 | 32.87999 | -97.03028 | 581 ft | 15 kts | 41° |
| 2026-05-07 21:17 | 32.88043 | -97.03010 | 579 ft | 0 kts | 1° |
| 2026-05-07 21:17 | 32.88173 | -97.03006 | 581 ft | 60 kts | 1° |
| 2026-05-07 21:17 | 32.88910 | -97.03005 | 578 ft | 152 kts | 0° |
| 2026-05-07 21:18 | 32.90162 | -97.03003 | 1019 ft | 201 kts | 359° |
| 2026-05-07 21:18 | 32.91728 | -97.03125 | 1595 ft | 245 kts | 352° |
| 2026-05-07 21:18 | 32.93376 | -97.03702 | 2375 ft | 250 kts | 337° |
| 2026-05-07 21:18 | 32.94944 | -97.04605 | 3265 ft | 251 kts | 334° |
| 2026-05-07 21:19 | 32.96515 | -97.05526 | 4165 ft | 251 kts | 334° |
| 2026-05-07 21:19 | 32.98081 | -97.06417 | 5119 ft | 249 kts | 334° |
| 2026-05-07 21:19 | 32.99610 | -97.07399 | 5941 ft | 250 kts | 321° |
| 2026-05-07 21:19 | 33.00739 | -97.08950 | 6670 ft | 250 kts | 295° |
| 2026-05-07 21:20 | 33.01161 | -97.10940 | 7398 ft | 250 kts | 271° |
| 2026-05-07 21:20 | 33.01058 | -97.13015 | 8175 ft | 251 kts | 265° |
| 2026-05-07 21:20 | 33.00889 | -97.15087 | 8973 ft | 252 kts | 264° |
| 2026-05-07 21:20 | 33.00716 | -97.17171 | 9755 ft | 253 kts | 263° |
| 2026-05-07 21:21 | 33.00493 | -97.19297 | 10255 ft | 266 kts | 263° |
| 2026-05-07 21:21 | 33.00253 | -97.21553 | 10536 ft | 284 kts | 263° |
| 2026-05-07 21:21 | 32.99908 | -97.23927 | 10886 ft | 298 kts | 254° |
| 2026-05-07 21:21 | 32.99067 | -97.26224 | 11478 ft | 305 kts | 244° |
| 2026-05-07 21:22 | 32.98070 | -97.28425 | 12171 ft | 307 kts | 244° |
| 2026-05-07 21:22 | 32.97030 | -97.30699 | 12922 ft | 309 kts | 244° |
| 2026-05-07 21:22 | 32.96022 | -97.32920 | 13664 ft | 310 kts | 244° |
| 2026-05-07 21:22 | 32.94996 | -97.35195 | 14350 ft | 312 kts | 244° |
| 2026-05-07 21:23 | 32.93971 | -97.37480 | 14975 ft | 315 kts | 244° |
| 2026-05-07 21:23 | 32.92937 | -97.39792 | 15568 ft | 318 kts | 244° |
| 2026-05-07 21:23 | 32.91891 | -97.42132 | 16172 ft | 322 kts | 244° |
| 2026-05-07 21:23 | 32.90834 | -97.44493 | 16799 ft | 325 kts | 244° |
| 2026-05-07 21:24 | 32.89767 | -97.46874 | 17437 ft | 327 kts | 244° |
| 2026-05-07 21:24 | 32.88692 | -97.49272 | 18076 ft | 330 kts | 244° |
| 2026-05-07 21:24 | 32.87591 | -97.51723 | 18584 ft | 333 kts | 244° |
| 2026-05-07 21:24 | 32.86498 | -97.54157 | 19130 ft | 334 kts | 245° |
| 2026-05-07 21:25 | 32.85412 | -97.56572 | 19670 ft | 336 kts | 245° |
| 2026-05-07 21:25 | 32.84292 | -97.59055 | 20229 ft | 337 kts | 245° |
| 2026-05-07 21:25 | 32.83183 | -97.61516 | 20761 ft | 339 kts | 245° |
| 2026-05-07 21:25 | 32.82082 | -97.63959 | 21292 ft | 340 kts | 245° |
| 2026-05-07 21:26 | 32.80950 | -97.66473 | 21836 ft | 342 kts | 245° |
| 2026-05-07 21:26 | 32.79839 | -97.68941 | 22370 ft | 343 kts | 246° |
| 2026-05-07 21:26 | 32.78883 | -97.71518 | 22903 ft | 341 kts | 255° |
| 2026-05-07 21:26 | 32.78452 | -97.74280 | 23418 ft | 340 kts | 267° |
| 2026-05-07 21:27 | 32.78636 | -97.77088 | 23851 ft | 344 kts | 279° |
| 2026-05-07 21:27 | 32.79249 | -97.79851 | 24281 ft | 347 kts | 282° |
| 2026-05-07 21:27 | 32.79928 | -97.82601 | 24695 ft | 348 kts | 282° |
| 2026-05-07 21:27 | 32.80600 | -97.85365 | 25114 ft | 349 kts | 282° |
| 2026-05-07 21:28 | 32.81264 | -97.88147 | 25572 ft | 350 kts | 281° |
| 2026-05-07 21:28 | 32.81925 | -97.90943 | 25969 ft | 352 kts | 281° |
| 2026-05-07 21:28 | 32.82582 | -97.93742 | 26363 ft | 353 kts | 280° |
| 2026-05-07 21:28 | 32.83239 | -97.96565 | 26745 ft | 354 kts | 280° |
| 2026-05-07 21:29 | 32.83898 | -97.99393 | 27112 ft | 356 kts | 279° |
| 2026-05-07 21:29 | 32.84563 | -98.02235 | 27471 ft | 358 kts | 279° |
| 2026-05-07 21:29 | 32.85230 | -98.05094 | 27836 ft | 359 kts | 279° |
| 2026-05-07 21:29 | 32.85895 | -98.07962 | 28191 ft | 361 kts | 278° |
| 2026-05-07 21:30 | 32.86565 | -98.10844 | 28543 ft | 362 kts | 278° |
| 2026-05-07 21:30 | 32.87234 | -98.13738 | 28891 ft | 363 kts | 278° |
| 2026-05-07 21:30 | 32.87905 | -98.16639 | 29223 ft | 365 kts | 278° |
| 2026-05-07 21:30 | 32.88580 | -98.19555 | 29544 ft | 366 kts | 277° |
| 2026-05-07 21:31 | 32.89256 | -98.22482 | 29898 ft | 368 kts | 277° |
| 2026-05-07 21:31 | 32.89936 | -98.25418 | 30168 ft | 369 kts | 277° |
| 2026-05-07 21:31 | 32.90618 | -98.28372 | 30412 ft | 371 kts | 277° |
| 2026-05-07 21:31 | 32.91298 | -98.31336 | 30665 ft | 372 kts | 277° |
| 2026-05-07 21:32 | 32.91980 | -98.34311 | 30921 ft | 373 kts | 277° |
| 2026-05-07 21:32 | 32.92668 | -98.37294 | 31174 ft | 374 kts | 277° |
| 2026-05-07 21:32 | 32.93356 | -98.40285 | 31420 ft | 375 kts | 277° |
| 2026-05-07 21:32 | 32.94041 | -98.43273 | 31712 ft | 374 kts | 277° |
| 2026-05-07 21:33 | 32.94724 | -98.46252 | 32006 ft | 373 kts | 277° |
| 2026-05-07 21:33 | 32.95403 | -98.49225 | 32290 ft | 372 kts | 277° |
| 2026-05-07 21:33 | 32.96080 | -98.52192 | 32558 ft | 371 kts | 276° |
| 2026-05-07 21:33 | 32.96758 | -98.55155 | 32812 ft | 370 kts | 276° |
| 2026-05-07 21:34 | 32.97436 | -98.58114 | 33076 ft | 370 kts | 276° |
| 2026-05-07 21:34 | 32.98110 | -98.61064 | 33327 ft | 369 kts | 276° |
| 2026-05-07 21:34 | 32.98781 | -98.64011 | 33561 ft | 369 kts | 276° |
| 2026-05-07 21:34 | 32.99450 | -98.66961 | 33795 ft | 368 kts | 276° |
| 2026-05-07 21:35 | 33.00117 | -98.69901 | 34022 ft | 368 kts | 276° |
| 2026-05-07 21:35 | 33.00784 | -98.72838 | 34076 ft | 367 kts | 276° |
| 2026-05-07 21:35 | 33.02105 | -98.78719 | 34066 ft | 368 kts | 276° |
| 2026-05-07 21:36 | 33.03438 | -98.84606 | 34057 ft | 368 kts | 276° |
| 2026-05-07 21:36 | 33.04770 | -98.90496 | 34045 ft | 368 kts | 276° |
| 2026-05-07 21:37 | 33.06098 | -98.96394 | 34038 ft | 368 kts | 276° |
| 2026-05-07 21:37 | 33.07419 | -99.02287 | 34042 ft | 368 kts | 276° |
| 2026-05-07 21:38 | 33.08740 | -99.08190 | 34044 ft | 368 kts | 275° |
| 2026-05-07 21:38 | 33.10046 | -99.14084 | 34039 ft | 368 kts | 275° |
| 2026-05-07 21:39 | 33.11359 | -99.19979 | 34043 ft | 368 kts | 276° |
| 2026-05-07 21:39 | 33.12675 | -99.25876 | 34042 ft | 368 kts | 275° |
| 2026-05-07 21:40 | 33.13976 | -99.31743 | 34039 ft | 368 kts | 275° |
| 2026-05-07 21:40 | 33.15276 | -99.37643 | 34041 ft | 368 kts | 275° |
| 2026-05-07 21:41 | 33.16573 | -99.43537 | 34029 ft | 367 kts | 275° |
| 2026-05-07 21:41 | 33.17878 | -99.49440 | 34031 ft | 368 kts | 275° |
| 2026-05-07 21:42 | 33.19180 | -99.55362 | 34029 ft | 369 kts | 275° |
| 2026-05-07 21:42 | 33.20488 | -99.61304 | 34032 ft | 370 kts | 276° |
| 2026-05-07 21:43 | 33.21841 | -99.67227 | 34033 ft | 370 kts | 276° |
| 2026-05-07 21:43 | 33.23190 | -99.73158 | 34028 ft | 370 kts | 276° |
| 2026-05-07 21:44 | 33.24532 | -99.79084 | 34027 ft | 370 kts | 276° |
| 2026-05-07 21:44 | 33.25872 | -99.85015 | 34026 ft | 370 kts | 276° |
| 2026-05-07 21:45 | 33.27213 | -99.90971 | 34021 ft | 371 kts | 276° |
| 2026-05-07 21:45 | 33.28552 | -99.96928 | 34025 ft | 371 kts | 276° |
| 2026-05-07 21:46 | 33.29888 | -100.02870 | 34017 ft | 369 kts | 276° |
| 2026-05-07 21:46 | 33.31211 | -100.08789 | 34016 ft | 368 kts | 276° |
| 2026-05-07 21:47 | 33.32530 | -100.14707 | 34015 ft | 368 kts | 275° |
| 2026-05-07 21:47 | 33.33847 | -100.20622 | 34022 ft | 368 kts | 275° |
| 2026-05-07 21:48 | 33.35166 | -100.26567 | 34015 ft | 370 kts | 275° |
| 2026-05-07 21:48 | 33.36485 | -100.32518 | 34009 ft | 371 kts | 275° |
| 2026-05-07 21:49 | 33.37799 | -100.38482 | 34008 ft | 371 kts | 275° |
| 2026-05-07 21:49 | 33.39116 | -100.44443 | 34007 ft | 371 kts | 275° |
| 2026-05-07 21:50 | 33.40428 | -100.50404 | 34007 ft | 370 kts | 275° |
| 2026-05-07 21:50 | 33.41511 | -100.55361 | 34009 ft | 371 kts | 275° |
| 2026-05-07 21:51 | 33.43034 | -100.62307 | 34007 ft | 372 kts | 275° |
| 2026-05-07 21:51 | 33.44342 | -100.68296 | 34006 ft | 372 kts | 275° |
| 2026-05-07 21:52 | 33.45437 | -100.73318 | 34008 ft | 372 kts | 275° |
| 2026-05-07 21:52 | 33.46738 | -100.79314 | 34009 ft | 372 kts | 275° |
| 2026-05-07 21:53 | 33.48036 | -100.85304 | 34033 ft | 371 kts | 275° |
| 2026-05-07 21:53 | 33.49327 | -100.91274 | 34011 ft | 370 kts | 275° |
| 2026-05-07 21:54 | 33.50604 | -100.97202 | 34009 ft | 370 kts | 275° |
| 2026-05-07 21:54 | 33.51895 | -101.03203 | 34004 ft | 369 kts | 275° |
| 2026-05-07 21:55 | 33.53126 | -101.09130 | 34003 ft | 369 kts | 274° |
| 2026-05-07 21:55 | 33.54326 | -101.15107 | 34001 ft | 369 kts | 275° |
| 2026-05-07 21:56 | 33.55530 | -101.21083 | 34003 ft | 368 kts | 275° |
| 2026-05-07 21:56 | 33.56731 | -101.27057 | 34003 ft | 370 kts | 275° |
| 2026-05-07 21:57 | 33.57942 | -101.33102 | 34004 ft | 376 kts | 275° |
| 2026-05-07 21:57 | 33.59166 | -101.39219 | 34003 ft | 377 kts | 275° |
| 2026-05-07 21:58 | 33.60392 | -101.45337 | 34017 ft | 377 kts | 275° |
| 2026-05-07 21:58 | 33.61608 | -101.51460 | 34033 ft | 377 kts | 274° |
| 2026-05-07 21:59 | 33.62824 | -101.57580 | 34050 ft | 377 kts | 275° |
| 2026-05-07 21:59 | 33.64037 | -101.63702 | 34067 ft | 377 kts | 274° |
| 2026-05-07 22:00 | 33.65247 | -101.69825 | 34090 ft | 378 kts | 274° |
| 2026-05-07 22:00 | 33.66455 | -101.75970 | 34103 ft | 379 kts | 275° |
| 2026-05-07 22:01 | 33.67665 | -101.82126 | 34096 ft | 379 kts | 275° |
| 2026-05-07 22:01 | 33.68871 | -101.88282 | 34091 ft | 379 kts | 275° |
| 2026-05-07 22:02 | 33.70075 | -101.94437 | 34059 ft | 379 kts | 275° |
| 2026-05-07 22:02 | 33.71274 | -102.00586 | 34042 ft | 377 kts | 275° |
| 2026-05-07 22:03 | 33.72463 | -102.06717 | 34023 ft | 378 kts | 275° |
| 2026-05-07 22:03 | 33.73653 | -102.12873 | 34010 ft | 379 kts | 275° |
| 2026-05-07 22:04 | 33.74846 | -102.19043 | 34020 ft | 379 kts | 275° |
| 2026-05-07 22:04 | 33.76033 | -102.25206 | 33974 ft | 378 kts | 275° |
| 2026-05-07 22:05 | 33.77215 | -102.31369 | 33976 ft | 378 kts | 275° |
| 2026-05-07 22:05 | 33.78389 | -102.37516 | 33973 ft | 377 kts | 275° |
| 2026-05-07 22:06 | 33.79565 | -102.43663 | 33980 ft | 378 kts | 275° |
| 2026-05-07 22:06 | 33.80741 | -102.49837 | 33964 ft | 379 kts | 275° |
| 2026-05-07 22:07 | 33.81911 | -102.56008 | 33965 ft | 379 kts | 275° |
| 2026-05-07 22:07 | 33.83077 | -102.62148 | 33979 ft | 379 kts | 275° |
| 2026-05-07 22:08 | 33.84240 | -102.68331 | 33962 ft | 379 kts | 275° |
| 2026-05-07 22:08 | 33.85406 | -102.74516 | 33960 ft | 379 kts | 275° |
| 2026-05-07 22:09 | 33.86569 | -102.80714 | 33961 ft | 381 kts | 275° |
| 2026-05-07 22:09 | 33.87732 | -102.86929 | 33956 ft | 381 kts | 275° |
| 2026-05-07 22:10 | 33.88894 | -102.93154 | 33957 ft | 381 kts | 275° |
| 2026-05-07 22:10 | 33.90051 | -102.99375 | 33955 ft | 381 kts | 275° |
| 2026-05-07 22:11 | 33.91201 | -103.05591 | 33952 ft | 380 kts | 275° |
| 2026-05-07 22:11 | 33.92352 | -103.11814 | 33952 ft | 380 kts | 275° |
| 2026-05-07 22:12 | 33.93499 | -103.18041 | 33949 ft | 382 kts | 275° |
| 2026-05-07 22:12 | 33.94645 | -103.24283 | 33949 ft | 382 kts | 275° |
| 2026-05-07 22:13 | 33.95790 | -103.30533 | 33947 ft | 382 kts | 275° |
| 2026-05-07 22:13 | 33.96930 | -103.36785 | 33949 ft | 382 kts | 275° |
| 2026-05-07 22:14 | 33.98067 | -103.43029 | 33950 ft | 381 kts | 275° |
| 2026-05-07 22:14 | 33.99198 | -103.49265 | 33962 ft | 381 kts | 275° |
| 2026-05-07 22:15 | 34.00336 | -103.55539 | 33948 ft | 384 kts | 275° |
| 2026-05-07 22:15 | 34.01466 | -103.61826 | 33944 ft | 384 kts | 275° |
| 2026-05-07 22:16 | 34.02595 | -103.68118 | 33944 ft | 384 kts | 275° |
| 2026-05-07 22:16 | 34.03729 | -103.74409 | 33944 ft | 384 kts | 275° |
| 2026-05-07 22:17 | 34.04853 | -103.80692 | 33929 ft | 383 kts | 275° |
| 2026-05-07 22:17 | 34.05971 | -103.86978 | 33914 ft | 384 kts | 275° |
| 2026-05-07 22:18 | 34.07649 | -103.96446 | 33897 ft | 385 kts | 275° |
| 2026-05-07 22:19 | 34.08762 | -104.02723 | 33901 ft | 385 kts | 275° |
| 2026-05-07 22:19 | 34.09873 | -104.09032 | 33905 ft | 385 kts | 275° |
| 2026-05-07 22:20 | 34.10983 | -104.15358 | 33910 ft | 385 kts | 275° |
| 2026-05-07 22:20 | 34.12094 | -104.21677 | 33922 ft | 385 kts | 275° |
| 2026-05-07 22:21 | 34.13201 | -104.28029 | 33914 ft | 388 kts | 275° |
| 2026-05-07 22:21 | 34.14310 | -104.34398 | 33911 ft | 388 kts | 275° |
| 2026-05-07 22:22 | 34.15414 | -104.40794 | 33923 ft | 390 kts | 275° |
| 2026-05-07 22:22 | 34.16521 | -104.47194 | 33917 ft | 390 kts | 275° |
| 2026-05-07 22:23 | 34.17631 | -104.53612 | 33931 ft | 390 kts | 275° |
| 2026-05-07 22:23 | 34.18732 | -104.60021 | 33930 ft | 389 kts | 275° |
| 2026-05-07 22:24 | 34.19827 | -104.66422 | 33943 ft | 389 kts | 275° |
| 2026-05-07 22:24 | 34.20920 | -104.72826 | 33940 ft | 389 kts | 275° |
| 2026-05-07 22:25 | 34.22002 | -104.79239 | 33946 ft | 389 kts | 275° |
| 2026-05-07 22:25 | 34.23080 | -104.85646 | 33944 ft | 389 kts | 275° |
| 2026-05-07 22:26 | 34.24176 | -104.92051 | 33946 ft | 389 kts | 275° |
| 2026-05-07 22:26 | 34.25261 | -104.98491 | 33955 ft | 393 kts | 275° |
| 2026-05-07 22:27 | 34.26347 | -105.04977 | 33944 ft | 394 kts | 275° |
| 2026-05-07 22:27 | 34.27416 | -105.11466 | 33956 ft | 394 kts | 275° |
| 2026-05-07 22:28 | 34.28482 | -105.17958 | 33952 ft | 394 kts | 275° |
| 2026-05-07 22:28 | 34.29579 | -105.24460 | 33958 ft | 397 kts | 277° |
| 2026-05-07 22:29 | 34.30664 | -105.31037 | 33962 ft | 401 kts | 277° |
| 2026-05-07 22:29 | 34.31752 | -105.37705 | 33967 ft | 406 kts | 277° |
| 2026-05-07 22:30 | 34.32860 | -105.44414 | 33967 ft | 406 kts | 277° |
| 2026-05-07 22:30 | 34.33962 | -105.51109 | 33984 ft | 406 kts | 277° |
| 2026-05-07 22:31 | 34.35060 | -105.57804 | 33980 ft | 406 kts | 277° |
| 2026-05-07 22:31 | 34.36147 | -105.64498 | 34001 ft | 406 kts | 277° |
| 2026-05-07 22:32 | 34.36660 | -105.71257 | 33994 ft | 407 kts | 266° |
| 2026-05-07 22:32 | 34.36497 | -105.78110 | 33997 ft | 408 kts | 266° |
| 2026-05-07 22:33 | 34.36345 | -105.84966 | 34004 ft | 408 kts | 266° |
| 2026-05-07 22:33 | 34.36203 | -105.91824 | 34001 ft | 407 kts | 266° |
| 2026-05-07 22:34 | 34.36047 | -105.98684 | 33993 ft | 408 kts | 266° |
| 2026-05-07 22:34 | 34.35889 | -106.05567 | 33998 ft | 412 kts | 266° |
| 2026-05-07 22:35 | 34.35730 | -106.12507 | 33989 ft | 412 kts | 266° |
| 2026-05-07 22:35 | 34.35565 | -106.19432 | 33988 ft | 412 kts | 266° |
| 2026-05-07 22:36 | 34.35396 | -106.26369 | 33987 ft | 412 kts | 266° |
| 2026-05-07 22:36 | 34.35222 | -106.33298 | 33986 ft | 412 kts | 266° |
| 2026-05-07 22:37 | 34.35043 | -106.40269 | 33975 ft | 418 kts | 267° |
| 2026-05-07 22:37 | 34.34858 | -106.47302 | 33974 ft | 420 kts | 267° |
| 2026-05-07 22:38 | 34.34705 | -106.53180 | 33958 ft | 420 kts | 267° |
| 2026-05-07 22:38 | 34.34513 | -106.60243 | 33956 ft | 420 kts | 267° |
| 2026-05-07 22:39 | 34.34318 | -106.67303 | 33939 ft | 420 kts | 267° |
| 2026-05-07 22:39 | 34.34113 | -106.74385 | 33925 ft | 426 kts | 268° |
| 2026-05-07 22:40 | 34.33919 | -106.81624 | 33930 ft | 434 kts | 270° |
| 2026-05-07 22:40 | 34.34187 | -106.88928 | 33947 ft | 434 kts | 274° |
| 2026-05-07 22:41 | 34.34531 | -106.96235 | 33939 ft | 436 kts | 273° |
| 2026-05-07 22:41 | 34.34862 | -107.03547 | 33935 ft | 435 kts | 274° |
| 2026-05-07 22:42 | 34.35186 | -107.10889 | 33917 ft | 440 kts | 274° |
| 2026-05-07 22:42 | 34.35507 | -107.18301 | 33917 ft | 442 kts | 274° |
| 2026-05-07 22:43 | 34.35826 | -107.25734 | 33921 ft | 442 kts | 274° |
| 2026-05-07 22:43 | 34.36142 | -107.33164 | 33917 ft | 442 kts | 274° |
| 2026-05-07 22:44 | 34.36450 | -107.40595 | 33914 ft | 442 kts | 274° |
| 2026-05-07 22:44 | 34.36758 | -107.48079 | 33919 ft | 447 kts | 274° |
| 2026-05-07 22:45 | 34.37062 | -107.55599 | 33920 ft | 447 kts | 274° |
| 2026-05-07 22:45 | 34.37363 | -107.63127 | 33921 ft | 448 kts | 274° |
| 2026-05-07 22:46 | 34.37656 | -107.70643 | 33920 ft | 447 kts | 274° |
| 2026-05-07 22:46 | 34.37947 | -107.78172 | 33926 ft | 449 kts | 274° |
| 2026-05-07 22:47 | 34.38232 | -107.85734 | 33920 ft | 450 kts | 274° |
| 2026-05-07 22:47 | 34.38406 | -107.90356 | 33922 ft | 450 kts | 274° |
| 2026-05-07 22:48 | 34.38525 | -107.93524 | 33922 ft | 450 kts | 274° |
| 2026-05-07 22:48 | 34.38730 | -107.99103 | 33919 ft | 450 kts | 274° |
| 2026-05-07 22:49 | 34.39005 | -108.06678 | 33925 ft | 450 kts | 274° |
| 2026-05-07 22:49 | 34.39274 | -108.14262 | 33925 ft | 452 kts | 275° |
| 2026-05-07 22:50 | 34.39538 | -108.21856 | 33934 ft | 451 kts | 274° |
| 2026-05-07 22:50 | 34.39804 | -108.29453 | 33933 ft | 451 kts | 274° |
| 2026-05-07 22:51 | 34.40060 | -108.37043 | 33929 ft | 451 kts | 274° |
| 2026-05-07 22:51 | 34.40312 | -108.44639 | 33934 ft | 452 kts | 275° |
| 2026-05-07 22:52 | 34.40562 | -108.52267 | 33937 ft | 454 kts | 275° |
| 2026-05-07 22:52 | 34.40806 | -108.59903 | 33935 ft | 454 kts | 275° |
| 2026-05-07 22:53 | 34.41045 | -108.67544 | 33937 ft | 454 kts | 274° |
| 2026-05-07 22:53 | 34.41279 | -108.75187 | 33938 ft | 454 kts | 274° |
| 2026-05-07 22:54 | 34.41506 | -108.82848 | 33938 ft | 456 kts | 275° |
| 2026-05-07 22:54 | 34.41736 | -108.90535 | 33938 ft | 457 kts | 275° |
| 2026-05-07 22:55 | 34.41955 | -108.98220 | 33939 ft | 457 kts | 275° |
| 2026-05-07 22:55 | 34.42172 | -109.05903 | 33943 ft | 457 kts | 275° |
| 2026-05-07 22:56 | 34.42394 | -109.13590 | 33963 ft | 457 kts | 276° |
| 2026-05-07 22:56 | 34.43061 | -109.21235 | 33983 ft | 457 kts | 280° |
| 2026-05-07 22:57 | 34.43812 | -109.28865 | 33988 ft | 457 kts | 280° |
| 2026-05-07 22:57 | 34.44552 | -109.36599 | 33982 ft | 464 kts | 279° |
| 2026-05-07 22:58 | 34.45289 | -109.44357 | 33965 ft | 464 kts | 279° |
| 2026-05-07 22:58 | 34.45657 | -109.48249 | 34102 ft | 465 kts | 280° |
| 2026-05-07 22:58 | 34.46023 | -109.52143 | 34088 ft | 466 kts | 280° |
| 2026-05-07 22:59 | 34.46754 | -109.59949 | 34060 ft | 466 kts | 280° |
| 2026-05-07 22:59 | 34.47482 | -109.67746 | 34023 ft | 466 kts | 280° |
| 2026-05-07 23:00 | 34.48204 | -109.75561 | 33963 ft | 466 kts | 279° |
| 2026-05-07 23:00 | 34.48915 | -109.83374 | 33961 ft | 467 kts | 280° |
| 2026-05-07 23:01 | 34.49620 | -109.91160 | 33963 ft | 468 kts | 280° |
| 2026-05-07 23:01 | 34.50340 | -109.99000 | 33968 ft | 468 kts | 280° |
| 2026-05-07 23:02 | 34.51050 | -110.06841 | 33965 ft | 468 kts | 280° |
| 2026-05-07 23:02 | 34.51754 | -110.14740 | 33970 ft | 468 kts | 280° |
| 2026-05-07 23:03 | 34.52448 | -110.22531 | 33973 ft | 468 kts | 280° |
| 2026-05-07 23:03 | 34.53134 | -110.30374 | 33970 ft | 465 kts | 280° |
| 2026-05-07 23:04 | 34.53818 | -110.38177 | 33982 ft | 466 kts | 280° |
| 2026-05-07 23:04 | 34.54498 | -110.45990 | 33983 ft | 466 kts | 280° |
| 2026-05-07 23:05 | 34.55167 | -110.53810 | 33985 ft | 467 kts | 280° |
| 2026-05-07 23:05 | 34.55836 | -110.61616 | 33985 ft | 465 kts | 280° |
| 2026-05-07 23:06 | 34.56495 | -110.69403 | 33990 ft | 464 kts | 280° |
| 2026-05-07 23:06 | 34.57153 | -110.77194 | 33992 ft | 464 kts | 280° |
| 2026-05-07 23:07 | 34.57805 | -110.84985 | 33989 ft | 465 kts | 280° |
| 2026-05-07 23:07 | 34.58449 | -110.92780 | 33988 ft | 465 kts | 280° |
| 2026-05-07 23:08 | 34.59090 | -111.00585 | 33997 ft | 465 kts | 280° |
| 2026-05-07 23:08 | 34.59725 | -111.08375 | 33996 ft | 464 kts | 280° |
| 2026-05-07 23:09 | 34.60347 | -111.16169 | 33979 ft | 464 kts | 280° |
| 2026-05-07 23:09 | 34.60974 | -111.23948 | 33972 ft | 462 kts | 279° |
| 2026-05-07 23:10 | 34.61596 | -111.31715 | 33968 ft | 462 kts | 279° |
| 2026-05-07 23:10 | 34.62210 | -111.39485 | 33985 ft | 462 kts | 279° |
| 2026-05-07 23:11 | 34.62817 | -111.47247 | 33957 ft | 462 kts | 279° |
| 2026-05-07 23:11 | 34.63419 | -111.55000 | 33938 ft | 462 kts | 279° |
| 2026-05-07 23:12 | 34.64024 | -111.62762 | 33987 ft | 461 kts | 279° |
| 2026-05-07 23:12 | 34.64620 | -111.70513 | 34007 ft | 461 kts | 279° |
| 2026-05-07 23:13 | 34.65208 | -111.78276 | 34009 ft | 461 kts | 279° |
| 2026-05-07 23:13 | 34.65792 | -111.86047 | 34004 ft | 463 kts | 279° |
| 2026-05-07 23:14 | 34.66368 | -111.93835 | 33985 ft | 463 kts | 279° |
| 2026-05-07 23:14 | 34.66947 | -112.01625 | 33964 ft | 463 kts | 279° |
| 2026-05-07 23:15 | 34.67507 | -112.09420 | 33965 ft | 463 kts | 279° |
| 2026-05-07 23:15 | 34.68066 | -112.17189 | 34003 ft | 461 kts | 279° |
| 2026-05-07 23:16 | 34.68629 | -112.24951 | 34055 ft | 461 kts | 279° |
| 2026-05-07 23:16 | 34.69182 | -112.32718 | 34089 ft | 461 kts | 279° |
| 2026-05-07 23:17 | 34.69729 | -112.40481 | 34089 ft | 461 kts | 279° |
| 2026-05-07 23:17 | 34.70137 | -112.48208 | 34082 ft | 465 kts | 272° |
| 2026-05-07 23:17 | 34.69827 | -112.52132 | 33926 ft | 468 kts | 266° |
| 2026-05-07 23:18 | 34.69371 | -112.56046 | 33923 ft | 468 kts | 265° |
| 2026-05-07 23:18 | 34.68418 | -112.63929 | 33909 ft | 468 kts | 265° |
| 2026-05-07 23:19 | 34.67495 | -112.71711 | 33910 ft | 468 kts | 265° |
| 2026-05-07 23:19 | 34.66578 | -112.79535 | 33879 ft | 468 kts | 265° |
| 2026-05-07 23:20 | 34.65653 | -112.87285 | 33895 ft | 462 kts | 265° |
| 2026-05-07 23:20 | 34.64731 | -112.95012 | 33899 ft | 462 kts | 264° |
| 2026-05-07 23:21 | 34.63798 | -113.02731 | 33892 ft | 462 kts | 264° |
| 2026-05-07 23:21 | 34.62848 | -113.10440 | 33893 ft | 462 kts | 264° |
| 2026-05-07 23:22 | 34.61906 | -113.18162 | 33881 ft | 463 kts | 265° |
| 2026-05-07 23:22 | 34.60962 | -113.25897 | 33872 ft | 463 kts | 265° |
| 2026-05-07 23:23 | 34.60009 | -113.33620 | 33877 ft | 463 kts | 264° |
| 2026-05-07 23:23 | 34.59215 | -113.40041 | 33861 ft | 463 kts | 264° |
| 2026-05-07 23:24 | 34.58249 | -113.47830 | 33865 ft | 465 kts | 265° |
| 2026-05-07 23:24 | 34.57283 | -113.55554 | 33862 ft | 466 kts | 265° |
| 2026-05-07 23:25 | 34.56310 | -113.63337 | 33858 ft | 466 kts | 265° |
| 2026-05-07 23:25 | 34.55434 | -113.71124 | 33859 ft | 466 kts | 266° |
| 2026-05-07 23:26 | 34.54565 | -113.78912 | 33850 ft | 465 kts | 266° |
| 2026-05-07 23:26 | 34.53704 | -113.86671 | 33855 ft | 464 kts | 265° |
| 2026-05-07 23:27 | 34.52399 | -113.98305 | 33849 ft | 464 kts | 265° |
| 2026-05-07 23:27 | 34.51458 | -114.06051 | 33842 ft | 466 kts | 261° |
| 2026-05-07 23:28 | 34.49890 | -114.13672 | 33839 ft | 465 kts | 258° |
| 2026-05-07 23:28 | 34.48271 | -114.21254 | 33840 ft | 465 kts | 258° |
| 2026-05-07 23:29 | 34.46660 | -114.28844 | 33838 ft | 465 kts | 258° |
| 2026-05-07 23:29 | 34.45047 | -114.36423 | 33833 ft | 465 kts | 258° |
| 2026-05-07 23:30 | 34.43427 | -114.43992 | 33823 ft | 463 kts | 258° |
| 2026-05-07 23:30 | 34.41811 | -114.51532 | 33820 ft | 462 kts | 258° |
| 2026-05-07 23:31 | 34.40193 | -114.59061 | 33821 ft | 462 kts | 258° |
| 2026-05-07 23:31 | 34.38568 | -114.66588 | 33823 ft | 462 kts | 258° |
| 2026-05-07 23:32 | 34.36941 | -114.74112 | 33823 ft | 462 kts | 258° |
| 2026-05-07 23:32 | 34.35310 | -114.81630 | 33826 ft | 462 kts | 258° |
| 2026-05-07 23:33 | 34.33671 | -114.89150 | 33825 ft | 462 kts | 258° |
| 2026-05-07 23:33 | 34.32033 | -114.96664 | 33825 ft | 462 kts | 258° |
| 2026-05-07 23:34 | 34.30382 | -115.04181 | 33818 ft | 463 kts | 258° |
| 2026-05-07 23:34 | 34.28724 | -115.11728 | 33825 ft | 465 kts | 258° |
| 2026-05-07 23:35 | 34.27062 | -115.19272 | 33820 ft | 464 kts | 258° |
| 2026-05-07 23:35 | 34.25415 | -115.26819 | 33822 ft | 465 kts | 258° |
| 2026-05-07 23:36 | 34.23815 | -115.34374 | 33809 ft | 464 kts | 258° |
| 2026-05-07 23:36 | 34.22207 | -115.41916 | 33815 ft | 461 kts | 258° |
| 2026-05-07 23:37 | 34.20606 | -115.49385 | 33817 ft | 458 kts | 258° |
| 2026-05-07 23:37 | 34.19010 | -115.56806 | 33817 ft | 456 kts | 258° |
| 2026-05-07 23:38 | 34.17400 | -115.64260 | 33806 ft | 462 kts | 258° |
| 2026-05-07 23:38 | 34.16088 | -115.71794 | 33823 ft | 455 kts | 266° |
| 2026-05-07 23:39 | 34.15371 | -115.79334 | 33599 ft | 445 kts | 266° |
| 2026-05-07 23:39 | 34.15027 | -115.83003 | 33317 ft | 436 kts | 266° |
| 2026-05-07 23:39 | 34.14679 | -115.86622 | 33054 ft | 432 kts | 266° |
| 2026-05-07 23:40 | 34.14331 | -115.90219 | 32805 ft | 430 kts | 266° |
| 2026-05-07 23:40 | 34.13982 | -115.93796 | 32562 ft | 428 kts | 266° |
| 2026-05-07 23:40 | 34.13637 | -115.97307 | 32304 ft | 426 kts | 266° |
| 2026-05-07 23:40 | 34.13292 | -116.00849 | 32061 ft | 424 kts | 266° |
| 2026-05-07 23:41 | 34.12944 | -116.04377 | 31818 ft | 422 kts | 266° |
| 2026-05-07 23:41 | 34.12591 | -116.07881 | 31575 ft | 421 kts | 266° |
| 2026-05-07 23:41 | 34.12247 | -116.11382 | 31332 ft | 419 kts | 266° |
| 2026-05-07 23:41 | 34.11908 | -116.14870 | 31091 ft | 418 kts | 266° |
| 2026-05-07 23:42 | 34.11568 | -116.18347 | 30844 ft | 416 kts | 266° |
| 2026-05-07 23:42 | 34.11226 | -116.21809 | 30600 ft | 415 kts | 266° |
| 2026-05-07 23:42 | 34.10884 | -116.25258 | 30280 ft | 413 kts | 266° |
| 2026-05-07 23:42 | 34.10542 | -116.28685 | 30042 ft | 411 kts | 266° |
| 2026-05-07 23:43 | 34.10196 | -116.32105 | 29771 ft | 409 kts | 266° |
| 2026-05-07 23:43 | 34.09835 | -116.35492 | 29492 ft | 407 kts | 265° |
| 2026-05-07 23:43 | 34.09471 | -116.38875 | 29226 ft | 405 kts | 265° |
| 2026-05-07 23:43 | 34.09106 | -116.42238 | 28955 ft | 404 kts | 265° |
| 2026-05-07 23:44 | 34.08745 | -116.45581 | 28580 ft | 401 kts | 266° |
| 2026-05-07 23:44 | 34.08389 | -116.48901 | 28112 ft | 398 kts | 266° |
| 2026-05-07 23:44 | 34.08034 | -116.52199 | 27647 ft | 395 kts | 266° |
| 2026-05-07 23:44 | 34.07680 | -116.55475 | 27178 ft | 393 kts | 266° |
| 2026-05-07 23:45 | 34.07331 | -116.58731 | 26678 ft | 391 kts | 266° |
| 2026-05-07 23:45 | 34.07019 | -116.61978 | 26187 ft | 389 kts | 266° |
| 2026-05-07 23:45 | 34.06720 | -116.65216 | 25744 ft | 387 kts | 266° |
| 2026-05-07 23:45 | 34.06418 | -116.68467 | 25301 ft | 401 kts | 266° |
| 2026-05-07 23:46 | 34.06103 | -116.71928 | 24836 ft | 430 kts | 266° |
| 2026-05-07 23:46 | 34.05766 | -116.75594 | 24333 ft | 444 kts | 266° |
| 2026-05-07 23:46 | 34.05418 | -116.79284 | 23691 ft | 441 kts | 265° |
| 2026-05-07 23:46 | 34.05071 | -116.82955 | 23080 ft | 438 kts | 266° |
| 2026-05-07 23:47 | 34.04738 | -116.86492 | 22521 ft | 434 kts | 266° |
| 2026-05-07 23:47 | 34.04343 | -116.90171 | 21962 ft | 430 kts | 263° |
| 2026-05-07 23:47 | 34.03890 | -116.93705 | 21547 ft | 420 kts | 263° |
| 2026-05-07 23:47 | 34.03446 | -116.97121 | 21276 ft | 406 kts | 263° |
| 2026-05-07 23:48 | 34.03014 | -117.00417 | 20971 ft | 390 kts | 263° |
| 2026-05-07 23:48 | 34.02598 | -117.03583 | 20475 ft | 377 kts | 263° |
| 2026-05-07 23:48 | 34.02210 | -117.06692 | 19677 ft | 375 kts | 264° |
| 2026-05-07 23:48 | 34.01846 | -117.09816 | 19001 ft | 376 kts | 264° |
| 2026-05-07 23:49 | 34.01482 | -117.12926 | 18543 ft | 374 kts | 264° |
| 2026-05-07 23:49 | 34.01114 | -117.16021 | 18115 ft | 372 kts | 264° |
| 2026-05-07 23:49 | 34.00746 | -117.19099 | 17671 ft | 370 kts | 264° |
| 2026-05-07 23:49 | 34.00382 | -117.22156 | 17219 ft | 367 kts | 264° |
| 2026-05-07 23:50 | 34.00020 | -117.25190 | 16781 ft | 364 kts | 263° |
| 2026-05-07 23:50 | 33.99619 | -117.28198 | 16347 ft | 363 kts | 263° |
| 2026-05-07 23:50 | 33.99251 | -117.31178 | 15929 ft | 357 kts | 264° |
| 2026-05-07 23:50 | 33.98918 | -117.34118 | 15509 ft | 351 kts | 264° |
| 2026-05-07 23:51 | 33.98592 | -117.37010 | 15101 ft | 346 kts | 264° |
| 2026-05-07 23:51 | 33.98270 | -117.39860 | 14696 ft | 341 kts | 264° |
| 2026-05-07 23:51 | 33.97949 | -117.42670 | 14298 ft | 336 kts | 264° |
| 2026-05-07 23:51 | 33.97632 | -117.45438 | 13904 ft | 332 kts | 264° |
| 2026-05-07 23:52 | 33.97347 | -117.48178 | 13470 ft | 327 kts | 269° |
| 2026-05-07 23:52 | 33.97527 | -117.50860 | 13036 ft | 319 kts | 283° |
| 2026-05-07 23:52 | 33.97992 | -117.53457 | 12595 ft | 314 kts | 284° |
| 2026-05-07 23:52 | 33.98224 | -117.56035 | 12144 ft | 310 kts | 263° |
| 2026-05-07 23:53 | 33.97584 | -117.58488 | 11796 ft | 306 kts | 247° |
| 2026-05-07 23:53 | 33.96639 | -117.60779 | 11407 ft | 305 kts | 245° |
| 2026-05-07 23:53 | 33.96142 | -117.63169 | 11198 ft | 288 kts | 277° |
| 2026-05-07 23:53 | 33.96580 | -117.65531 | 10816 ft | 293 kts | 288° |
| 2026-05-07 23:54 | 33.96849 | -117.67956 | 10492 ft | 294 kts | 275° |
| 2026-05-07 23:54 | 33.97189 | -117.70419 | 9761 ft | 300 kts | 286° |
| 2026-05-07 23:54 | 33.97725 | -117.72818 | 9402 ft | 301 kts | 286° |
| 2026-05-07 23:54 | 33.98188 | -117.75308 | 9306 ft | 298 kts | 281° |
| 2026-05-07 23:55 | 33.98505 | -117.77756 | 8834 ft | 297 kts | 279° |
| 2026-05-07 23:55 | 33.98733 | -117.80324 | 8545 ft | 319 kts | 276° |
| 2026-05-07 23:55 | 33.98864 | -117.82953 | 8128 ft | 312 kts | 274° |
| 2026-05-07 23:55 | 33.98903 | -117.85565 | 7539 ft | 312 kts | 270° |
| 2026-05-07 23:56 | 33.98801 | -117.88166 | 7285 ft | 300 kts | 267° |
| 2026-05-07 23:56 | 33.98626 | -117.90614 | 7118 ft | 287 kts | 265° |
| 2026-05-07 23:56 | 33.98423 | -117.92981 | 6786 ft | 281 kts | 264° |
| 2026-05-07 23:56 | 33.98153 | -117.95289 | 6394 ft | 278 kts | 261° |
| 2026-05-07 23:57 | 33.97767 | -117.97580 | 5927 ft | 278 kts | 259° |
| 2026-05-07 23:57 | 33.97372 | -117.99790 | 5638 ft | 271 kts | 260° |
| 2026-05-07 23:57 | 33.97063 | -118.02002 | 5313 ft | 264 kts | 262° |
| 2026-05-07 23:57 | 33.96800 | -118.04173 | 4908 ft | 261 kts | 263° |
| 2026-05-07 23:58 | 33.96556 | -118.06284 | 4739 ft | 241 kts | 263° |
| 2026-05-07 23:58 | 33.96330 | -118.08180 | 4643 ft | 214 kts | 263° |
| 2026-05-07 23:58 | 33.96122 | -118.09873 | 4469 ft | 190 kts | 263° |
| 2026-05-07 23:58 | 33.95939 | -118.11286 | 4604 ft | 155 kts | 263° |
| 2026-05-07 23:59 | 33.95781 | -118.12500 | 4302 ft | 146 kts | 264° |
| 2026-05-07 23:59 | 33.95677 | -118.13722 | 3964 ft | 149 kts | 266° |
| 2026-05-07 23:59 | 33.95594 | -118.15105 | 3747 ft | 177 kts | 266° |
| 2026-05-07 23:59 | 33.95531 | -118.16584 | 3747 ft | 176 kts | 268° |
| 2026-05-08 00:00 | 33.95453 | -118.18071 | 3752 ft | 179 kts | 268° |
| 2026-05-08 00:00 | 33.95384 | -118.19556 | 3630 ft | 176 kts | 267° |
| 2026-05-08 00:00 | 33.95272 | -118.21015 | 3398 ft | 175 kts | 265° |
| 2026-05-08 00:00 | 33.95149 | -118.22437 | 3013 ft | 164 kts | 266° |
| 2026-05-08 00:01 | 33.95045 | -118.23753 | 2756 ft | 150 kts | 265° |
| 2026-05-08 00:01 | 33.94966 | -118.24993 | 2511 ft | 149 kts | 266° |
| 2026-05-08 00:01 | 33.94881 | -118.26231 | 2248 ft | 147 kts | 265° |
| 2026-05-08 00:01 | 33.94779 | -118.27440 | 2066 ft | 145 kts | 263° |
| 2026-05-08 00:02 | 33.94690 | -118.28662 | 1877 ft | 147 kts | 264° |
| 2026-05-08 00:02 | 33.94582 | -118.29870 | 1618 ft | 145 kts | 259° |
| 2026-05-08 00:02 | 33.94445 | -118.31068 | 1402 ft | 144 kts | 260° |
| 2026-05-08 00:02 | 33.94316 | -118.32279 | 1172 ft | 147 kts | 262° |
| 2026-05-08 00:03 | 33.94192 | -118.33488 | 1000 ft | 144 kts | 263° |
| 2026-05-08 00:03 | 33.94079 | -118.34688 | 746 ft | 144 kts | 263° |
| 2026-05-08 00:03 | 33.93967 | -118.35879 | 516 ft | 141 kts | 261° |
| 2026-05-08 00:03 | 33.93853 | -118.37047 | 288 ft | 142 kts | 261° |
| 2026-05-08 00:04 | 33.93749 | -118.38226 | 142 ft | 139 kts | 260° |
| 2026-05-08 00:04 | 33.93635 | -118.39338 | 100 ft | 125 kts | 259° |
| 2026-05-08 00:04 | 33.93568 | -118.39915 | 101 ft | 37 kts | 268° |
| 2026-05-08 00:04 | 33.93578 | -118.40194 | 103 ft | 28 kts | 275° |
| 2026-05-08 00:05 | 33.93611 | -118.40313 | 101 ft | 14 kts | 286° |
| 2026-05-08 00:05 | 33.93620 | -118.40490 | 100 ft | 27 kts | 263° |
| 2026-05-08 00:05 | 33.93598 | -118.40720 | 99 ft | 28 kts | 265° |
| 2026-05-08 00:05 | 33.93693 | -118.40901 | 101 ft | 29 kts | 352° |
| 2026-05-08 00:06 | 33.93795 | -118.40837 | 101 ft | 17 kts | 80° |
| 2026-05-08 00:06 | 33.93866 | -118.40749 | 100 ft | 18 kts | 325° |
| 2026-05-08 00:06 | 33.93945 | -118.40804 | 100 ft | 13 kts | 26° |
| 2026-05-08 00:06 | 33.93976 | -118.40744 | 98 ft | 6 kts | 71° |
| 2026-05-08 00:07 | 33.93978 | -118.40738 | 98 ft | 0 kts | 68° |